Time;durP1;ratioP1;P1;durP2;ratioP2;P2;SDS_P1;SDS_P2;PMS_P1;PMS_P2;Temp;Humidity;BMP_temperature;BMP_pressure;BME280_temperature;BME280_humidity;BME280_pressure;Samples;Min_cycle;Max_cycle;Signal;HPM_P1;HPM_P2
2023/10/30 00:00:48;;;;;;;2.97;1.90;;;;;;;12.66;79.01;97576.28;4966997;28;103963;-66
2023/10/30 00:03:17;;;;;;;3.42;2.17;;;;;;;12.57;79.37;97596.94;4946520;28;102686;-66
2023/10/30 00:05:46;;;;;;;2.58;1.70;;;;;;;12.59;79.58;97603.69;4974669;28;102672;-66
2023/10/30 00:08:16;;;;;;;4.07;2.13;;;;;;;12.67;79.41;97584.06;4950122;28;103358;-66
2023/10/30 00:10:44;;;;;;;3.53;2.47;;;;;;;12.42;79.58;97582.06;4956687;28;103199;-66
2023/10/30 00:13:12;;;;;;;3.90;2.10;;;;;;;12.60;79.63;97569.97;4972727;28;102637;-66
2023/10/30 00:15:40;;;;;;;3.78;2.38;;;;;;;12.59;79.50;97576.31;4969294;28;102981;-66
2023/10/30 00:18:08;;;;;;;4.32;3.05;;;;;;;12.55;79.74;97593.66;4971748;28;103323;-66
2023/10/30 00:20:37;;;;;;;3.67;2.60;;;;;;;12.49;80.06;97595.31;4966644;28;103222;-66
2023/10/30 00:23:06;;;;;;;5.03;3.78;;;;;;;12.53;79.64;97582.47;4948004;28;102714;-66
2023/10/30 00:25:34;;;;;;;3.47;2.17;;;;;;;12.54;79.96;97594.72;4964393;28;103499;-65
2023/10/30 00:28:02;;;;;;;8.80;3.38;;;;;;;12.51;79.23;97595.94;4947544;28;103814;-65
2023/10/30 00:30:32;;;;;;;3.80;2.38;;;;;;;12.56;79.22;97587.34;4956101;28;103202;-66
2023/10/30 00:33:00;;;;;;;5.22;3.08;;;;;;;12.39;79.70;97584.31;4959941;28;102829;-66
2023/10/30 00:35:28;;;;;;;3.13;2.00;;;;;;;12.48;79.76;97587.56;4966873;28;103716;-65
2023/10/30 00:37:56;;;;;;;2.42;1.70;;;;;;;12.60;79.49;97588.56;4969347;28;103796;-66
2023/10/30 00:40:26;;;;;;;2.58;1.70;;;;;;;12.65;79.24;97594.06;4964107;28;103168;-66
2023/10/30 00:42:54;;;;;;;3.70;2.28;;;;;;;12.70;78.82;97593.44;4970305;28;102596;-66
2023/10/30 00:45:22;;;;;;;4.72;1.70;;;;;;;12.71;79.06;97603.06;4965291;28;103788;-65
2023/10/30 00:47:52;;;;;;;4.93;3.10;;;;;;;12.75;78.37;97601.59;4948597;28;104503;-66
2023/10/30 00:50:20;;;;;;;3.63;2.20;;;;;;;12.77;78.41;97618.13;4948691;28;103366;-66
2023/10/30 00:52:48;;;;;;;6.45;3.95;;;;;;;12.77;78.60;97615.47;4971913;28;102701;-66
2023/10/30 00:55:16;;;;;;;4.53;2.60;;;;;;;12.75;78.92;97612.22;4961656;28;103787;-66
2023/10/30 00:57:45;;;;;;;3.30;2.20;;;;;;;12.77;78.68;97626.94;4955703;28;103839;-66
2023/10/30 01:00:13;;;;;;;4.85;3.00;;;;;;;12.72;78.95;97629.41;4964330;28;103044;-66
2023/10/30 01:02:41;;;;;;;6.97;3.08;;;;;;;12.57;79.58;97637.59;4953752;28;102875;-67
2023/10/30 01:05:09;;;;;;;3.38;2.08;;;;;;;12.63;79.45;97635.13;4950510;28;103106;-66
2023/10/30 01:07:38;;;;;;;3.20;1.98;;;;;;;12.62;79.53;97654.78;4955759;28;104426;-66
2023/10/30 01:10:07;;;;;;;5.07;2.55;;;;;;;12.66;79.86;97642.72;4955866;28;104192;-66
2023/10/30 01:12:35;;;;;;;4.93;3.17;;;;;;;12.37;80.21;97642.94;4965544;28;102638;-66
2023/10/30 01:15:06;;;;;;;4.55;3.05;;;;;;;12.33;80.56;97639.06;4964260;28;103942;-66
2023/10/30 01:17:34;;;;;;;5.40;3.35;;;;;;;12.36;81.09;97625.38;4954550;28;104184;-66
2023/10/30 01:20:03;;;;;;;6.00;3.72;;;;;;;12.32;81.25;97628.66;4970144;28;103205;-66
2023/10/30 01:22:31;;;;;;;5.15;3.28;;;;;;;12.22;81.14;97610.47;4967428;28;103092;-67
2023/10/30 01:24:59;;;;;;;4.07;2.58;;;;;;;12.20;81.46;97626.59;4952740;28;103793;-66
2023/10/30 01:27:27;;;;;;;5.18;3.53;;;;;;;12.29;81.13;97629.88;4969718;28;104233;-66
2023/10/30 01:29:55;;;;;;;5.57;3.00;;;;;;;12.25;80.47;97640.09;4951774;28;103444;-65
2023/10/30 01:32:24;;;;;;;2.88;2.03;;;;;;;12.37;80.92;97637.63;4952193;28;102755;-66
2023/10/30 01:34:52;;;;;;;5.00;3.20;;;;;;;12.47;80.41;97639.03;4948237;28;103837;-66
2023/10/30 01:37:21;;;;;;;5.03;3.13;;;;;;;12.42;80.22;97648.44;4967447;28;104025;-66
2023/10/30 01:39:49;;;;;;;5.13;3.13;;;;;;;12.35;80.31;97644.16;4945981;28;104074;-66
2023/10/30 01:42:17;;;;;;;6.60;3.28;;;;;;;12.23;80.85;97644.78;4965685;28;102654;-67
2023/10/30 01:44:54;;;;;;;3.08;2.00;;;;;;;12.31;81.35;97645.59;4956261;28;104455;-66
2023/10/30 01:47:24;;;;;;;4.25;2.30;;;;;;;12.28;80.67;97633.56;4947421;28;104236;-66
2023/10/30 01:49:53;;;;;;;4.07;2.22;;;;;;;12.31;81.24;97640.28;4970378;28;103214;-66
2023/10/30 01:52:24;;;;;;;3.53;1.98;;;;;;;12.38;80.92;97641.91;4974887;28;102669;-67
2023/10/30 01:54:53;;;;;;;4.90;2.85;;;;;;;12.35;80.53;97644.97;4954478;28;104175;-67
2023/10/30 01:57:23;;;;;;;3.55;1.90;;;;;;;12.35;80.79;97644.16;4954253;28;103381;-66
2023/10/30 01:59:51;;;;;;;3.33;2.20;;;;;;;12.47;80.92;97647.00;4958158;28;104223;-66
2023/10/30 02:02:21;;;;;;;5.40;2.42;;;;;;;12.48;80.60;97646.00;4966640;28;102829;-66
2023/10/30 02:04:51;;;;;;;3.15;1.95;;;;;;;12.54;80.11;97637.22;4959269;28;102892;-66
2023/10/30 02:07:18;;;;;;;2.53;1.70;;;;;;;12.57;80.30;97642.09;4953048;28;104392;-66
2023/10/30 02:09:48;;;;;;;4.03;2.20;;;;;;;12.59;80.09;97629.44;4968697;28;103308;-66
2023/10/30 02:12:17;;;;;;;3.33;1.90;;;;;;;12.62;79.69;97622.91;4961717;28;102738;-65
2023/10/30 02:14:45;;;;;;;3.03;2.15;;;;;;;12.58;79.86;97622.50;4955507;28;102820;-66
2023/10/30 02:17:12;;;;;;;3.15;2.00;;;;;;;12.58;79.49;97617.97;4950733;28;104610;-66
2023/10/30 02:19:41;;;;;;;2.95;1.80;;;;;;;12.58;79.59;97612.66;4956657;28;104484;-66
2023/10/30 02:22:10;;;;;;;3.80;2.00;;;;;;;12.55;79.55;97613.09;4955647;28;102795;-66
2023/10/30 02:24:38;;;;;;;4.22;2.60;;;;;;;12.46;79.77;97609.03;4945197;28;104522;-66
2023/10/30 02:27:08;;;;;;;4.60;2.20;;;;;;;12.35;80.26;97617.63;4947243;28;104267;-66
2023/10/30 02:29:36;;;;;;;3.90;1.90;;;;;;;12.39;80.05;97614.34;4957054;28;103808;-66
2023/10/30 02:32:07;;;;;;;3.17;1.90;;;;;;;12.46;79.73;97610.84;4952288;28;102731;-66
2023/10/30 02:34:35;;;;;;;3.17;1.98;;;;;;;12.46;79.87;97613.50;4954523;28;102727;-66
2023/10/30 02:37:03;;;;;;;4.75;2.80;;;;;;;12.50;79.43;97614.72;4958145;28;104208;-66
2023/10/30 02:39:34;;;;;;;2.95;2.10;;;;;;;12.48;79.95;97611.47;4969506;28;103172;-66
2023/10/30 02:42:04;;;;;;;5.25;3.00;;;;;;;12.44;79.19;97611.91;4965535;28;102704;-66
2023/10/30 02:44:34;;;;;;;2.78;1.88;;;;;;;12.43;79.75;97602.28;4965151;28;103747;-66
2023/10/30 02:47:02;;;;;;;2.83;1.95;;;;;;;12.46;79.33;97602.88;4968940;28;103887;-66
2023/10/30 02:49:30;;;;;;;3.35;1.88;;;;;;;12.44;79.26;97603.94;4945768;28;103269;-66
2023/10/30 02:51:58;;;;;;;2.97;1.92;;;;;;;12.42;79.36;97598.00;4949617;28;102631;-66
2023/10/30 02:54:26;;;;;;;3.28;2.15;;;;;;;12.43;78.99;97604.94;4961026;28;103386;-65
2023/10/30 02:56:54;;;;;;;4.25;2.83;;;;;;;12.30;79.55;97586.38;4963188;28;103353;-65
2023/10/30 02:59:22;;;;;;;4.93;3.20;;;;;;;12.08;80.09;97585.78;4957926;28;103463;-66
2023/10/30 03:01:51;;;;;;;4.80;2.92;;;;;;;12.14;80.65;97589.44;4973838;28;102810;-66
2023/10/30 03:04:19;;;;;;;2.95;1.90;;;;;;;12.21;80.29;97587.59;4959771;28;104570;-65
2023/10/30 03:06:47;;;;;;;3.13;1.90;;;;;;;12.25;80.18;97588.84;4968335;28;104205;-66
2023/10/30 03:09:16;;;;;;;2.95;1.90;;;;;;;12.30;79.79;97589.03;4953018;28;104159;-66
2023/10/30 03:11:44;;;;;;;2.53;1.60;;;;;;;12.35;79.65;97589.22;4952821;28;102815;-65
2023/10/30 03:14:12;;;;;;;4.97;2.40;;;;;;;12.39;79.64;97594.94;4966139;28;102784;-66
2023/10/30 03:16:39;;;;;;;3.97;2.25;;;;;;;12.39;79.69;97598.41;4968526;28;103937;-67
2023/10/30 03:19:09;;;;;;;3.25;2.05;;;;;;;12.40;79.37;97594.72;4972088;28;103305;-66
2023/10/30 03:21:37;;;;;;;4.63;2.70;;;;;;;12.37;79.43;97600.44;4955849;28;102709;-66
2023/10/30 03:24:06;;;;;;;3.80;2.30;;;;;;;12.38;79.42;97607.41;4974278;28;103765;-66
2023/10/30 03:26:34;;;;;;;2.63;1.77;;;;;;;12.38;79.52;97602.09;4970818;28;103415;-66
2023/10/30 03:29:02;;;;;;;3.40;1.75;;;;;;;12.43;79.65;97601.47;4971200;28;103119;-66
2023/10/30 03:31:30;;;;;;;4.85;3.03;;;;;;;12.35;78.88;97581.25;4961049;28;102635;-67
2023/10/30 03:34:01;;;;;;;3.80;2.13;;;;;;;12.30;79.56;97578.44;4969652;28;102963;-66
2023/10/30 03:36:30;;;;;;;4.63;2.80;;;;;;;12.26;79.11;97571.88;4971708;28;103323;-66
2023/10/30 03:38:58;;;;;;;3.25;2.35;;;;;;;12.26;79.80;97577.19;4973362;28;103246;-66
2023/10/30 03:41:26;;;;;;;5.20;2.00;;;;;;;12.26;79.54;97572.69;4972842;28;102621;-66
2023/10/30 03:43:54;;;;;;;5.70;2.45;;;;;;;12.24;79.40;97568.63;4972911;28;104016;-66
2023/10/30 03:46:24;;;;;;;6.25;2.58;;;;;;;12.23;79.51;97573.09;4968290;28;104021;-66
2023/10/30 03:48:52;;;;;;;3.95;2.20;;;;;;;12.23;79.48;97574.94;4974395;28;103504;-66
2023/10/30 03:51:20;;;;;;;5.40;2.70;;;;;;;12.15;78.92;97565.34;4959979;28;102664;-66
2023/10/30 03:53:52;;;;;;;3.30;1.60;;;;;;;12.14;79.55;97561.06;4973333;28;103691;-66
2023/10/30 03:56:20;;;;;;;3.20;2.00;;;;;;;12.17;79.43;97571.28;4967177;28;103272;-66
2023/10/30 03:58:48;;;;;;;3.97;2.35;;;;;;;12.15;79.02;97559.25;4966701;28;103268;-66
2023/10/30 04:01:16;;;;;;;2.47;1.60;;;;;;;12.07;78.96;97552.31;4971371;28;102718;-66
2023/10/30 04:03:44;;;;;;;2.95;1.60;;;;;;;12.04;79.05;97545.56;4970737;28;102693;-66
2023/10/30 04:06:12;;;;;;;2.75;1.80;;;;;;;12.01;78.99;97548.63;4961925;28;103744;-66
2023/10/30 04:08:40;;;;;;;2.22;1.50;;;;;;;11.96;79.32;97548.44;4955784;28;103294;-66
2023/10/30 04:11:11;;;;;;;6.10;2.10;;;;;;;11.89;78.54;97548.38;4972017;28;102671;-66
2023/10/30 04:13:39;;;;;;;4.10;1.95;;;;;;;11.78;79.32;97541.88;4969153;28;103887;-66
2023/10/30 04:16:10;;;;;;;2.50;1.88;;;;;;;11.64;79.21;97536.78;4954698;28;104043;-66
2023/10/30 04:18:37;;;;;;;3.03;2.05;;;;;;;11.60;79.70;97536.38;4962813;28;103484;-66
2023/10/30 04:21:05;;;;;;;4.80;2.40;;;;;;;11.54;79.67;97547.78;4968056;28;102698;-66
2023/10/30 04:23:34;;;;;;;4.78;2.40;;;;;;;11.43;79.81;97542.03;4968051;28;103061;-66
2023/10/30 04:26:01;;;;;;;4.90;2.53;;;;;;;11.48;79.92;97545.94;4967061;28;103374;-66
2023/10/30 04:28:31;;;;;;;3.75;2.03;;;;;;;11.41;80.07;97545.91;4965466;28;103223;-66
2023/10/30 04:30:59;;;;;;;3.70;2.50;;;;;;;11.24;79.89;97537.53;4969152;28;103007;-66
2023/10/30 04:33:27;;;;;;;5.93;3.13;;;;;;;11.17;80.98;97526.91;4964968;28;103925;-66
2023/10/30 04:35:55;;;;;;;8.98;2.40;;;;;;;11.18;81.08;97541.00;4967806;28;104068;-66
2023/10/30 04:38:24;;;;;;;5.85;2.50;;;;;;;11.31;80.37;97537.56;4968909;28;103305;-66
2023/10/30 04:40:52;;;;;;;4.00;2.50;;;;;;;11.16;80.49;97527.13;4970896;28;102985;-66
2023/10/30 04:43:22;;;;;;;4.45;2.72;;;;;;;11.17;80.54;97531.41;4971222;28;102598;-65
2023/10/30 04:45:51;;;;;;;4.32;2.63;;;;;;;11.06;80.76;97517.72;4969846;28;103310;-66
2023/10/30 04:48:19;;;;;;;5.43;2.35;;;;;;;11.05;81.18;97518.72;4965269;28;103246;-66
2023/10/30 04:50:47;;;;;;;4.90;2.80;;;;;;;11.16;80.81;97529.78;4955541;28;102892;-66
2023/10/30 04:53:15;;;;;;;6.35;2.45;;;;;;;11.09;80.81;97530.56;4954989;28;103878;-66
2023/10/30 04:55:43;;;;;;;11.85;2.80;;;;;;;11.08;80.18;97522.81;4949162;28;104194;-66
2023/10/30 04:58:11;;;;;;;4.65;2.40;;;;;;;11.11;80.88;97525.09;4968548;28;103305;-66
2023/10/30 05:00:42;;;;;;;4.15;2.20;;;;;;;11.13;80.59;97530.19;4962394;28;102703;-67
2023/10/30 05:03:11;;;;;;;5.43;2.75;;;;;;;11.10;80.16;97542.00;4969031;28;103042;-66
2023/10/30 05:05:39;;;;;;;3.03;1.95;;;;;;;11.09;80.72;97546.47;4965325;28;103352;-66
2023/10/30 05:08:07;;;;;;;3.90;1.95;;;;;;;11.14;80.55;97542.41;4959310;28;104265;-66
2023/10/30 05:10:37;;;;;;;2.35;1.67;;;;;;;11.25;80.54;97544.47;4952217;28;102741;-66
2023/10/30 05:13:05;;;;;;;2.63;1.70;;;;;;;11.30;80.09;97546.53;4944727;28;103990;-63
2023/10/30 05:15:33;;;;;;;2.97;1.90;;;;;;;11.36;79.70;97556.34;4967059;28;103983;-65
2023/10/30 05:18:01;;;;;;;6.43;2.70;;;;;;;11.24;79.53;97553.44;4970392;28;103307;-65
2023/10/30 05:20:30;;;;;;;3.72;2.30;;;;;;;11.22;80.10;97542.22;4952064;28;102817;-65
2023/10/30 05:22:58;;;;;;;3.80;2.03;;;;;;;11.29;79.96;97535.09;4947958;28;102731;-65
2023/10/30 05:25:28;;;;;;;5.53;2.80;;;;;;;11.06;80.04;97525.66;4967780;28;103948;-65
2023/10/30 05:28:09;;;;;;;4.40;2.20;;;;;;;11.00;80.77;97518.50;4950509;28;104397;-65
2023/10/30 05:30:37;;;;;;;3.35;2.22;;;;;;;11.01;80.86;97506.91;4960315;28;102913;-65
2023/10/30 05:33:05;;;;;;;3.03;1.80;;;;;;;11.07;80.86;97511.41;4972113;28;104097;-65
2023/10/30 05:35:35;;;;;;;3.10;1.90;;;;;;;11.10;80.54;97511.00;4966408;28;104275;-65
2023/10/30 05:38:04;;;;;;;5.05;2.00;;;;;;;11.10;79.91;97511.00;4966232;28;103273;-65
2023/10/30 05:40:32;;;;;;;3.00;1.80;;;;;;;11.06;79.74;97508.97;4969785;28;102880;-65
2023/10/30 05:43:02;;;;;;;4.38;1.77;;;;;;;11.08;79.78;97504.28;4966050;28;102833;-64
2023/10/30 05:45:30;;;;;;;3.42;2.15;;;;;;;11.05;79.38;97508.13;4950416;28;104356;-65
2023/10/30 05:47:58;;;;;;;3.53;2.30;;;;;;;10.97;79.34;97495.09;4970103;28;103211;-65
2023/10/30 05:50:26;;;;;;;5.22;2.58;;;;;;;10.75;80.42;97487.25;4964854;28;102714;-65
2023/10/30 05:52:57;;;;;;;4.38;2.53;;;;;;;10.75;80.56;97492.56;4958181;28;103823;-65
2023/10/30 05:55:26;;;;;;;3.60;2.22;;;;;;;10.70;79.94;97494.19;4948765;28;104459;-65
2023/10/30 05:57:54;;;;;;;7.55;2.83;;;;;;;10.63;80.16;97499.47;4968099;28;102773;-67
2023/10/30 06:00:23;;;;;;;4.22;2.22;;;;;;;10.62;80.00;97495.16;4955519;28;102621;-66
2023/10/30 06:02:51;;;;;;;4.53;2.72;;;;;;;10.65;79.55;97486.84;4966578;28;104276;-66
2023/10/30 06:05:19;;;;;;;4.10;2.40;;;;;;;10.47;79.77;97478.59;4951806;28;104541;-66
2023/10/30 06:07:47;;;;;;;4.90;2.22;;;;;;;10.45;80.06;97470.88;4968430;28;103193;-66
2023/10/30 06:10:19;;;;;;;3.83;2.33;;;;;;;10.41;80.03;97475.72;4967306;28;102734;-67
2023/10/30 06:12:47;;;;;;;4.82;2.85;;;;;;;10.47;80.32;97473.31;4966853;28;104025;-67
2023/10/30 06:15:15;;;;;;;5.00;2.33;;;;;;;10.52;80.17;97478.84;4964821;28;103295;-66
2023/10/30 06:17:43;;;;;;;4.13;2.15;;;;;;;10.57;80.01;97469.31;4946658;28;104160;-65
2023/10/30 06:20:12;;;;;;;4.35;2.10;;;;;;;10.59;79.53;97471.75;4947713;28;102610;-65
2023/10/30 06:22:40;;;;;;;7.03;2.35;;;;;;;10.64;79.58;97474.63;4949834;28;102855;-66
2023/10/30 06:25:09;;;;;;;3.85;2.78;;;;;;;10.69;79.76;97477.50;4970853;28;103662;-67
2023/10/30 06:27:40;;;;;;;5.32;3.42;;;;;;;10.75;79.84;97484.63;4954270;28;104147;-65
2023/10/30 06:30:09;;;;;;;3.97;2.30;;;;;;;10.73;79.23;97477.88;4973494;28;102713;-65
2023/10/30 06:32:37;;;;;;;4.25;2.33;;;;;;;10.74;79.66;97477.72;4974057;28;103124;-65
2023/10/30 06:35:08;;;;;;;4.93;2.70;;;;;;;10.86;79.98;97479.75;4951259;28;104406;-65
2023/10/30 06:37:36;;;;;;;5.65;3.35;;;;;;;10.89;80.03;97482.84;4950455;28;103419;-66
2023/10/30 06:40:05;;;;;;;8.27;3.22;;;;;;;10.90;80.13;97483.63;4967945;28;102657;-65
2023/10/30 06:42:33;;;;;;;6.32;4.63;;;;;;;10.85;80.95;97486.91;4969836;28;102672;-64
2023/10/30 06:45:03;;;;;;;6.90;4.40;;;;;;;10.87;81.12;97492.81;4953632;28;103331;-67
2023/10/30 06:47:34;;;;;;;7.17;3.93;;;;;;;10.98;80.81;97506.47;4979739;28;103200;-64
2023/10/30 06:50:05;;;;;;;8.15;5.20;;;;;;;10.93;81.12;97499.16;4971326;28;102712;-66
2023/10/30 06:52:33;;;;;;;8.10;4.70;;;;;;;11.03;81.08;97515.47;4973284;28;103622;-67
2023/10/30 06:55:01;;;;;;;11.35;7.10;;;;;;;10.94;81.28;97511.38;4971684;28;103359;-65
2023/10/30 06:57:29;;;;;;;8.38;4.90;;;;;;;10.85;81.65;97497.50;4976294;28;103738;-64
2023/10/30 06:59:58;;;;;;;7.53;4.25;;;;;;;10.76;82.47;97493.41;4971317;28;102730;-65
2023/10/30 07:02:27;;;;;;;8.32;4.45;;;;;;;10.96;81.62;97493.44;4970422;28;102710;-64
2023/10/30 07:04:55;;;;;;;7.90;4.93;;;;;;;11.07;81.39;97498.16;4952239;28;104560;-65
2023/10/30 07:07:23;;;;;;;7.88;3.97;;;;;;;11.21;80.82;97490.22;4972775;28;103347;-67
2023/10/30 07:09:51;;;;;;;6.88;4.00;;;;;;;11.22;80.47;97497.16;4975092;28;102631;-64
2023/10/30 07:12:20;;;;;;;9.50;4.07;;;;;;;11.25;80.78;97504.72;4976023;28;103411;-65
2023/10/30 07:14:55;;;;;;;8.93;4.05;;;;;;;11.46;80.74;97511.66;4967899;28;104057;-67
2023/10/30 07:17:23;;;;;;;6.53;4.13;;;;;;;11.49;80.36;97507.78;4961833;28;103274;-65
2023/10/30 07:19:53;;;;;;;7.43;4.30;;;;;;;11.49;79.70;97507.78;4972257;28;103230;-67
2023/10/30 07:22:21;;;;;;;9.57;4.53;;;;;;;11.71;79.43;97514.53;4983828;28;103931;-67
2023/10/30 07:24:49;;;;;;;6.40;4.00;;;;;;;12.07;79.07;97526.56;4991413;28;103114;-67
2023/10/30 07:27:18;;;;;;;6.45;4.00;;;;;;;12.21;77.57;97515.94;4989095;28;103218;-65
2023/10/30 07:29:46;;;;;;;5.43;3.42;;;;;;;12.44;78.01;97513.66;4989481;28;102609;-67
2023/10/30 07:32:14;;;;;;;4.85;3.08;;;;;;;12.72;77.17;97515.16;4993285;28;102805;-67
2023/10/30 07:34:42;;;;;;;4.00;2.78;;;;;;;12.94;76.69;97509.53;4992923;28;103378;-64
2023/10/30 07:37:11;;;;;;;5.00;2.72;;;;;;;13.12;75.95;97511.50;4993720;28;103324;-64
2023/10/30 07:39:40;;;;;;;5.07;3.13;;;;;;;13.41;75.69;97499.47;4993204;28;102601;-65
2023/10/30 07:42:08;;;;;;;5.50;3.00;;;;;;;13.74;74.21;97502.88;4995474;28;104077;-65
2023/10/30 07:44:36;;;;;;;9.63;3.50;;;;;;;13.87;74.41;97501.97;4976483;28;104420;-64
2023/10/30 07:47:05;;;;;;;5.97;2.83;;;;;;;14.21;73.48;97491.81;4988475;28;103045;-68
2023/10/30 07:49:33;;;;;;;6.55;4.47;;;;;;;14.21;72.63;97497.13;4995979;28;102734;-67
2023/10/30 07:52:01;;;;;;;5.40;3.88;;;;;;;14.29;72.40;97494.16;4977463;28;102756;-66
2023/10/30 07:54:38;;;;;;;5.57;3.20;;;;;;;14.33;73.09;97490.06;4987662;28;103295;-68
2023/10/30 07:57:09;;;;;;;5.93;3.50;;;;;;;14.56;72.45;97488.56;4970323;28;103197;-67
2023/10/30 07:59:37;;;;;;;6.35;3.72;;;;;;;14.59;71.70;97488.09;4977805;28;102752;-65
2023/10/30 08:02:07;;;;;;;6.07;3.67;;;;;;;14.64;71.26;97485.59;4991675;28;103654;-68
2023/10/30 08:04:35;;;;;;;10.27;3.90;;;;;;;14.68;70.15;97481.44;4991670;28;104001;-67
2023/10/30 08:07:03;;;;;;;5.60;2.78;;;;;;;14.68;71.15;97480.66;4992236;28;103230;-68
2023/10/30 08:09:31;;;;;;;4.65;2.70;;;;;;;14.92;70.60;97473.56;4995424;28;102739;-67
2023/10/30 08:12:02;;;;;;;5.18;2.90;;;;;;;14.90;70.36;97467.66;4995199;28;102673;-65
2023/10/30 08:14:30;;;;;;;5.63;2.90;;;;;;;14.60;71.51;97473.75;4980740;28;104216;-68
2023/10/30 08:17:02;;;;;;;6.25;3.45;;;;;;;14.66;70.48;97464.06;4980573;28;104201;-65
2023/10/30 08:19:30;;;;;;;6.90;3.58;;;;;;;14.90;70.79;97457.78;4978373;28;102692;-65
2023/10/30 08:21:58;;;;;;;12.20;4.28;;;;;;;14.94;69.58;97462.69;4977339;28;102855;-65
2023/10/30 08:24:26;;;;;;;5.32;3.20;;;;;;;14.84;68.77;97463.22;4989933;28;104293;-65
2023/10/30 08:26:54;;;;;;;4.10;2.55;;;;;;;15.12;69.59;97470.63;4991649;28;103143;-66
2023/10/30 08:29:23;;;;;;;3.53;2.13;;;;;;;15.28;68.62;97463.81;4992928;28;102910;-67
2023/10/30 08:31:51;;;;;;;6.88;2.55;;;;;;;15.48;67.85;97452.03;4998239;28;102707;-65
2023/10/30 08:34:19;;;;;;;5.95;3.08;;;;;;;15.71;67.93;97461.91;4991030;28;104382;-65
2023/10/30 08:36:49;;;;;;;3.67;2.20;;;;;;;15.79;66.77;97455.41;4988562;28;104258;-68
2023/10/30 08:39:17;;;;;;;3.80;2.13;;;;;;;15.64;68.18;97446.00;4991533;28;103022;-65
2023/10/30 08:41:48;;;;;;;3.80;2.40;;;;;;;15.61;68.51;97451.00;4990659;28;102773;-65
2023/10/30 08:44:20;;;;;;;3.50;2.40;;;;;;;15.62;67.46;97450.75;4990723;28;104213;-66
2023/10/30 08:46:55;;;;;;;;;;;;;;;15.54;66.99;97456.44;4995631;28;103222;-65
2023/10/30 08:49:23;;;;;;;3.13;2.00;;;;;;;15.81;67.23;97461.34;4973151;28;102688;-68
2023/10/30 08:51:51;;;;;;;2.95;1.92;;;;;;;16.21;66.01;97449.94;4992575;28;103950;-68
2023/10/30 08:54:31;;;;;;;4.50;2.80;;;;;;;16.21;65.61;97445.41;4973531;28;103167;-68
2023/10/30 08:56:59;;;;;;;4.68;2.53;;;;;;;16.11;66.01;97439.03;4979068;28;104141;-65
2023/10/30 08:59:44;;;;;;;4.90;2.65;;;;;;;16.27;65.73;97438.34;4972784;28;102658;-66
2023/10/30 09:02:13;;;;;;;5.82;2.67;;;;;;;16.30;65.45;97442.41;4997379;28;104009;-68
2023/10/30 09:04:41;;;;;;;5.03;2.40;;;;;;;16.28;65.39;97445.28;4988957;28;104305;-66
2023/10/30 09:07:09;;;;;;;4.75;2.17;;;;;;;16.59;64.84;97435.22;4992900;28;103220;-68
2023/10/30 09:09:45;;;;;;;5.05;3.05;;;;;;;16.58;64.41;97422.88;4967410;28;103291;-68
2023/10/30 09:12:13;;;;;;;5.18;2.50;;;;;;;16.44;64.25;97438.41;4974862;28;104133;-66
2023/10/30 09:14:41;;;;;;;6.93;2.83;;;;;;;16.45;64.53;97429.31;4979553;28;104017;-68
2023/10/30 09:17:09;;;;;;;4.10;2.17;;;;;;;16.62;64.95;97426.69;4986047;28;103457;-66
2023/10/30 09:19:38;;;;;;;4.82;2.53;;;;;;;16.55;64.98;97420.69;4979839;28;102775;-68
2023/10/30 09:22:06;;;;;;;4.53;2.70;;;;;;;16.72;64.41;97418.06;4974691;28;103320;-67
2023/10/30 09:24:34;;;;;;;6.10;2.45;;;;;;;16.73;64.76;97409.81;4981824;28;103961;-65
2023/10/30 09:27:03;;;;;;;6.45;3.25;;;;;;;16.38;65.14;97410.75;4959832;28;102835;-67
2023/10/30 09:29:31;;;;;;;3.88;2.22;;;;;;;16.50;65.46;97412.59;4977161;28;102606;-66
2023/10/30 09:32:00;;;;;;;4.97;3.10;;;;;;;16.49;64.06;97419.78;4981285;28;103960;-68
2023/10/30 09:34:28;;;;;;;4.05;2.42;;;;;;;16.36;64.97;97407.53;4971378;28;104320;-66
2023/10/30 09:36:58;;;;;;;4.75;2.45;;;;;;;16.16;66.25;97409.78;4977661;28;102708;-66
2023/10/30 09:39:27;;;;;;;4.50;2.67;;;;;;;16.40;65.17;97406.00;4982625;28;102644;-65
2023/10/30 09:41:59;;;;;;;5.70;3.30;;;;;;;16.31;65.48;97386.03;4969531;28;104005;-65
2023/10/30 09:44:29;;;;;;;3.90;2.50;;;;;;;16.44;64.70;97394.81;4980088;28;103987;-67
2023/10/30 09:46:57;;;;;;;6.13;2.90;;;;;;;16.37;64.45;97400.31;4983570;28;103299;-65
2023/10/30 09:49:29;;;;;;;5.88;3.35;;;;;;;15.85;65.25;97407.28;4978745;28;103106;-66
2023/10/30 09:52:01;;;;;;;7.00;2.92;;;;;;;16.11;66.01;97401.66;4978810;28;105991;-67
2023/10/30 09:54:31;;;;;;;6.10;3.30;;;;;;;15.93;64.88;97399.94;4979663;28;104186;-67
2023/10/30 09:57:01;;;;;;;7.53;3.15;;;;;;;15.78;65.96;97398.53;4981721;28;103276;-65
2023/10/30 09:59:33;;;;;;;5.68;2.90;;;;;;;15.61;65.68;97403.75;4981590;28;102934;-65
2023/10/30 10:02:01;;;;;;;4.93;2.80;;;;;;;15.78;66.50;97395.06;4984683;28;102671;-65
2023/10/30 10:04:29;;;;;;;6.15;2.70;;;;;;;15.68;67.08;97403.63;4980013;28;103301;-68
2023/10/30 10:06:59;;;;;;;3.72;2.80;;;;;;;15.63;66.66;97392.84;4981386;28;103249;-64
2023/10/30 10:09:27;;;;;;;5.65;3.00;;;;;;;15.59;68.03;97389.84;4981823;28;102632;-64
2023/10/30 10:11:58;;;;;;;4.15;2.63;;;;;;;15.83;66.26;97384.53;4985336;28;102630;-66
2023/10/30 10:14:32;;;;;;;5.35;3.20;;;;;;;15.71;66.22;97371.16;4978958;28;104192;-68
2023/10/30 10:17:00;;;;;;;5.60;3.15;;;;;;;16.03;65.72;97378.78;4966445;28;102990;-65
2023/10/30 10:19:33;;;;;;;7.13;3.00;;;;;;;16.07;65.50;97378.09;4965864;28;102718;-68
2023/10/30 10:22:03;;;;;;;4.18;2.60;;;;;;;16.39;64.60;97366.16;4980739;28;104130;-68
2023/10/30 10:24:37;;;;;;;5.32;3.28;;;;;;;16.53;63.82;97366.66;4973643;28;104217;-68
2023/10/30 10:27:06;;;;;;;;;;;;;;;16.61;64.08;97358.28;4961853;28;104147;-66
2023/10/30 10:29:37;;;;;;;4.20;2.50;;;;;;;16.55;62.96;97360.03;4982516;28;102694;-66
2023/10/30 10:32:06;;;;;;;4.22;2.28;;;;;;;16.45;64.19;97351.03;4982129;28;102773;-65
2023/10/30 10:34:41;;;;;;;5.10;2.53;;;;;;;16.60;64.42;97351.31;4963282;28;102838;-65
2023/10/30 10:37:18;;;;;;;5.15;2.60;;;;;;;16.50;65.24;97327.06;4985174;28;103320;-65
2023/10/30 10:39:48;;;;;;;3.60;2.45;;;;;;;16.38;65.47;97322.56;4971071;28;102712;-65
2023/10/30 10:42:21;;;;;;;7.90;2.40;;;;;;;16.32;65.37;97317.38;4968433;28;104136;-68
2023/10/30 10:44:51;;;;;;;3.78;2.10;;;;;;;16.47;65.96;97312.31;4956422;28;104362;-67
2023/10/30 10:47:20;;;;;;;2.65;1.70;;;;;;;16.54;65.28;97306.81;4979521;28;103278;-68
2023/10/30 10:49:49;;;;;;;6.78;2.38;;;;;;;16.65;63.60;97305.13;4981705;28;102637;-67
2023/10/30 10:52:20;;;;;;;3.65;2.33;;;;;;;16.28;64.99;97306.34;4976962;28;102722;-68
2023/10/30 10:54:56;;;;;;;4.78;2.42;;;;;;;16.21;65.04;97300.38;4978380;28;104103;-68
2023/10/30 10:57:25;;;;;;;3.10;1.70;;;;;;;16.28;63.91;97300.22;4976183;28;103199;-68
2023/10/30 10:59:56;;;;;;;2.50;1.60;;;;;;;16.34;64.95;97289.38;4980194;28;102648;-65
2023/10/30 11:02:29;;;;;;;3.38;1.83;;;;;;;16.45;64.06;97290.34;4958534;28;102787;-66
2023/10/30 11:04:59;;;;;;;3.78;2.05;;;;;;;16.41;64.74;97282.03;4979404;28;104200;-65
2023/10/30 11:07:37;;;;;;;3.28;2.00;;;;;;;16.44;65.42;97288.75;4984692;28;103273;-68
2023/10/30 11:10:12;;;;;;;2.17;1.40;;;;;;;16.39;63.82;97284.13;4984268;28;102681;-68
2023/10/30 11:13:00;;;;;;;3.17;1.85;;;;;;;16.34;63.58;97284.03;4987040;28;103765;-65
2023/10/30 11:15:34;;;;;;;4.75;1.90;;;;;;;16.13;64.43;97255.34;4948001;28;104127;-68
2023/10/30 11:18:21;;;;;;;1.55;1.25;;;;;;;16.30;64.53;97266.88;4979089;28;104182;-65
2023/10/30 11:21:08;;;;;;;2.05;1.60;;;;;;;16.46;63.27;97254.56;4987586;28;102808;-65
2023/10/30 11:23:56;;;;;;;4.28;1.50;;;;;;;16.35;62.79;97266.97;4971491;28;103260;-65
2023/10/30 11:26:43;;;;;;;1.88;1.48;;;;;;;16.50;62.43;97265.59;4986104;28;102975;-65
2023/10/30 11:29:23;;;;;;;1.70;1.40;;;;;;;16.37;62.85;97251.47;4967102;28;103181;-65
2023/10/30 11:31:55;;;;;;;2.63;1.57;;;;;;;16.27;63.09;97256.66;4990560;28;102738;-64
2023/10/30 11:34:31;;;;;;;2.72;1.70;;;;;;;16.29;63.24;97259.09;4992418;28;104093;-68
2023/10/30 11:37:05;;;;;;;4.25;1.60;;;;;;;16.23;62.34;97231.47;4988878;28;104184;-68